LFBD/BOD METAR and TAF weather

Enter ICAO airport designator
Station Type Date Time Source
LFBD METAR 2019/10/15 03:30 UTC NOAA

LFBD 150330Z AUTO 18006KT 9999 -RA FEW005/// SCT031/// BKN048/// ///CB 12/12 Q1011 TEMPO 2000 -TSRA BKN012 BKN035TCU


Station Type Date Time Source
LFBD Decoded METAR 2019/10/15 03:30 UTC NOAA

Bordeaux / Merignac, France (LFBD) 44-50N 000-42W 61M
Oct 14, 2019 - 11:30 PM EDT / 2019.10.15 0330 UTC
Wind: from the S (180 degrees) at 7 MPH (6 KT):0
Visibility: greater than 7 mile(s):0
Sky conditions: mostly cloudy
Weather: light rain; Cumulonimbus clouds, towering cumulus clouds observed
Temperature: 53 F (12 C)
Dew Point: 53 F (12 C)
Relative Humidity: 100%
Pressure (altimeter): 29.85 in. Hg (1011 hPa)
ob: LFBD 150330Z AUTO 18006KT 9999 -RA FEW005/// SCT031/// BKN048/// ///CB 12/12 Q1011 TEMPO 2000 -TSRA BKN012 BKN035TCU
cycle: 3

Station Type Date Time Source
LFBD TAF 2019/10/15 01:43 UTC NOAA

TAF
AMD LFBD 150139Z 1501/1606 24008KT CAVOK TX18/1514Z TN13/1506Z
TEMPO 1501/1506 4000 SHRA BKN012 BKN035TCU PROB30
TEMPO 1501/1506 2000 -TSRA BKN020CB
TEMPO 1510/1518 27015G25KT 4500 SHRA BKN030TCU
BECMG 1518/1520 17010KT

Example: see airport list